M I D A S
Marine Information and Data Acquisition System
Tripno 1995 of the Zeeleeuw from 2010-10-15 06:34:42 to 2010-10-15 12:35:42
Back to CruiseResearch ActivitiesStationsMapUnderway DataData graphs

EquipmentUnitsComment
TimeDGPSUTC
LatitudeDGPSDM.mWGS84
LongitudeDGPSDM.mWGS84
HeadingGyrodeg 
SOGDGPSknotsSpeed over ground
COGDGPSdegCourse over ground
DepthEcho soundermeters200 kHz
Missing or incorrect values are displayed as -999
Navigation data collected by the RV Zeeleeuw from 2010-10-15 05:58:29 to 2010-10-15 13:40:07
Time Latitude Longitude Heading SOG COG Depth
2010-10-15 05:59:34 51°13.664 2°55.96 125.3 -999 256 -999
2010-10-15 06:00:34 51°13.664 2°55.96 125.4 0.1 169 -999
2010-10-15 06:01:34 51°13.664 2°55.96 125.3 -999 192 -999
2010-10-15 06:02:34 51°13.664 2°55.961 124.9 -999 342 -999
2010-10-15 06:03:34 51°13.663 2°55.96 124.7 0.1 161 -999
2010-10-15 06:04:34 51°13.663 2°55.96 124.5 -999 11 -999
2010-10-15 06:05:33 51°13.663 2°55.961 124.8 -999 351 -999
2010-10-15 06:06:34 51°13.663 2°55.96 124.8 0.1 334 -999
2010-10-15 06:07:34 51°13.663 2°55.959 124.5 0.1 333 -999
2010-10-15 06:08:34 51°13.663 2°55.959 124.5 0.1 335 -999
2010-10-15 06:09:34 51°13.663 2°55.959 124.4 -999 212 -999
2010-10-15 06:10:34 51°13.662 2°55.961 124.4 0.1 194 -999
2010-10-15 06:11:34 51°13.662 2°55.961 124.6 0.1 177 -999
2010-10-15 06:12:34 51°13.662 2°55.962 124.5 0.1 334 -999
2010-10-15 06:13:34 51°13.662 2°55.962 124.2 0.1 165 -999
2010-10-15 06:14:34 51°13.662 2°55.961 123.6 0.1 189 -999
2010-10-15 06:15:34 51°13.662 2°55.961 123.8 -999 192 -999
2010-10-15 06:16:34 51°13.662 2°55.96 124.5 -999 11 -999
2010-10-15 06:17:34 51°13.662 2°55.96 123.1 0.1 13 -999
2010-10-15 06:18:35 51°13.662 2°55.961 123.8 0.1 22 9.9
2010-10-15 06:19:34 51°13.662 2°55.961 123.8 -999 34 9.9
2010-10-15 06:20:32 51°13.662 2°55.961 124.4 0.2 35 9.9
2010-10-15 06:21:32 51°13.662 2°55.961 123.4 0.1 193 9.8
2010-10-15 06:22:32 51°13.663 2°55.961 123.3 0.1 11 9.8
2010-10-15 06:23:32 51°13.663 2°55.961 123.8 0.1 44 9.8
2010-10-15 06:24:32 51°13.663 2°55.96 124.2 -999 319 9.9
2010-10-15 06:25:32 51°13.662 2°55.961 126.3 -999 31 9.8
2010-10-15 06:26:32 51°13.662 2°55.96 126.4 0.1 158 9.8
2010-10-15 06:27:32 51°13.662 2°55.96 126.4 0.1 146 9.8
2010-10-15 06:28:32 51°13.662 2°55.96 126.4 0.1 223 9.8
2010-10-15 06:29:32 51°13.663 2°55.959 126.4 0.1 173 9.8
2010-10-15 06:30:32 51°13.664 2°55.958 126.4 0.1 28 9.8
2010-10-15 06:31:32 51°13.664 2°55.957 126.4 -999 146 9.8
2010-10-15 06:32:32 51°13.664 2°55.958 127 0.1 62 9.8
2010-10-15 06:33:32 51°13.663 2°55.958 120.6 0.1 192 9.7
2010-10-15 06:34:32 51°13.664 2°55.956 109.7 0.3 294 9.8
2010-10-15 06:35:36 51°13.677 2°55.904 108.2 3.6 293 -999
2010-10-15 06:36:36 51°13.694 2°55.794 91.7 4.5 276 -999
2010-10-15 06:37:35 51°13.693 2°55.727 58.1 0.3 334 14.5
2010-10-15 06:38:33 51°13.717 2°55.731 354.3 2.8 349 14.4
2010-10-15 06:39:32 51°13.793 2°55.666 329.4 7.3 331 13.5
2010-10-15 06:40:33 51°13.925 2°55.562 333.6 9.7 334 12.9
2010-10-15 06:41:32 51°14.074 2°55.45 334.7 10.3 334 11.8
2010-10-15 06:42:32 51°14.211 2°55.333 328.2 8.8 329 12.3
2010-10-15 06:43:32 51°14.335 2°55.212 327.6 8.7 329 11.9
2010-10-15 06:44:32 51°14.459 2°55.091 327.4 9 328 13
2010-10-15 06:45:32 51°14.607 2°54.957 327.4 11.6 333 13.3
2010-10-15 06:46:32 51°14.785 2°54.8 326.3 12.9 330 12.7
2010-10-15 06:47:32 51°14.987 2°54.672 334.5 13.3 339 10.6
2010-10-15 06:48:32 51°15.163 2°54.482 317.4 12.9 322 10.4
2010-10-15 06:49:32 51°15.331 2°54.261 316.1 13.1 321 10.9
2010-10-15 06:50:32 51°15.492 2°54.03 310.9 12.9 316 11.6
2010-10-15 06:51:32 51°15.646 2°53.789 310.3 12.9 315 12.6
2010-10-15 06:52:32 51°15.799 2°53.549 313.4 12.8 321 12.4
2010-10-15 06:53:32 51°15.982 2°53.362 326.6 13.3 331 13.2
2010-10-15 06:54:32 51°16.173 2°53.189 326.4 13.2 330 13.3
2010-10-15 06:55:32 51°16.366 2°53.014 325.7 13.3 330 13.3
2010-10-15 06:56:32 51°16.559 2°52.843 327.8 13.3 334 13.2
2010-10-15 06:57:32 51°16.758 2°52.695 331.2 13.1 336 11.5
2010-10-15 06:58:32 51°16.958 2°52.548 330.5 13.4 335 11.6
2010-10-15 06:59:32 51°17.159 2°52.397 330.9 13.4 335 11.9
2010-10-15 07:00:32 51°17.36 2°52.245 330.4 13.4 334 12.3
2010-10-15 07:01:32 51°17.562 2°52.09 330.3 13.4 334 13
2010-10-15 07:02:32 51°17.763 2°51.935 330.6 13.4 334 11.8
2010-10-15 07:03:32 51°17.962 2°51.781 330.3 13.3 334 12
2010-10-15 07:04:32 51°18.161 2°51.626 330.7 13.3 334 12.7
2010-10-15 07:05:32 51°18.361 2°51.469 330.6 13.5 334 13.9
2010-10-15 07:06:32 51°18.56 2°51.313 330.3 13.3 335 14.9
2010-10-15 07:07:32 51°18.76 2°51.157 330.3 13.4 334 16
2010-10-15 07:08:32 51°18.959 2°50.999 330 13.3 333 15.9
2010-10-15 07:09:32 51°19.159 2°50.842 330.7 13.6 334 16.6
2010-10-15 07:10:32 51°19.358 2°50.684 329.6 13.3 332 15.1
2010-10-15 07:11:32 51°19.556 2°50.525 330.5 13.2 333 13
2010-10-15 07:12:32 51°19.751 2°50.363 330 13.2 332 14.7
2010-10-15 07:13:32 51°19.947 2°50.203 330.3 13.3 332 15.7
2010-10-15 07:14:32 51°20.145 2°50.045 330.4 13.3 334 18.4
2010-10-15 07:15:32 51°20.339 2°49.889 329.9 13.1 334 21.2
2010-10-15 07:16:32 51°20.537 2°49.734 330.4 13.4 334 24
2010-10-15 07:17:32 51°20.734 2°49.577 329.8 13.2 333 24.5
2010-10-15 07:18:32 51°20.933 2°49.418 330.3 13.5 334 24.3
2010-10-15 07:19:32 51°21.145 2°49.304 341.7 13.7 345 23.5
2010-10-15 07:20:32 51°21.363 2°49.203 339.3 13.5 340 22.8
2010-10-15 07:21:32 51°21.552 2°49.021 319.8 13.1 323 23.2
2010-10-15 07:22:32 51°21.727 2°48.807 318.7 13.4 323 24.4
2010-10-15 07:23:32 51°21.903 2°48.588 316.6 13.1 319 24.6
2010-10-15 07:24:32 51°22.061 2°48.355 314.5 13.2 317 24.7
2010-10-15 07:25:32 51°22.223 2°48.125 314.3 13 319 23.7
2010-10-15 07:26:32 51°22.385 2°47.897 314.8 13 317 18.5
2010-10-15 07:27:32 51°22.55 2°47.671 315 13.1 320 19.3
2010-10-15 07:28:32 51°22.716 2°47.444 315.1 13.2 320 19.3
2010-10-15 07:29:32 51°22.883 2°47.217 315.7 13 319 21.6
2010-10-15 07:30:32 51°23.048 2°46.989 315.1 13.1 318 22.7
2010-10-15 07:31:32 51°23.216 2°46.76 315.5 13.2 319 23
2010-10-15 07:32:32 51°23.384 2°46.53 315.3 13.3 321 25
2010-10-15 07:33:32 51°23.581 2°46.37 338 13.3 340 26.9
2010-10-15 07:34:32 51°23.793 2°46.252 339.2 13.5 340 31.8
2010-10-15 07:35:32 51°24.009 2°46.143 340.2 13.6 342 29.6
2010-10-15 07:36:32 51°24.214 2°46.003 328.9 13.3 331 29.2
2010-10-15 07:37:32 51°24.374 2°45.772 303.4 13.1 307 27.1
2010-10-15 07:38:32 51°24.483 2°45.48 293 12.6 296 27.6
2010-10-15 07:39:32 51°24.57 2°45.171 288.1 12.8 293 27.9
2010-10-15 07:40:32 51°24.634 2°44.85 278 12.7 282 26.1
2010-10-15 07:41:32 51°24.662 2°44.526 270.1 10.9 272 28
2010-10-15 07:42:32 51°24.649 2°44.301 256.9 7 261 25.9
2010-10-15 07:43:32 51°24.638 2°44.13 259.1 5.8 272 18.2
2010-10-15 07:44:32 51°24.641 2°44.014 260.2 3.8 269 24
2010-10-15 07:45:32 51°24.633 2°43.925 253.6 3.6 271 26
2010-10-15 07:46:32 51°24.645 2°43.85 262.8 2.4 273 26.1
2010-10-15 07:47:32 51°24.643 2°43.796 255.7 2 273 23.1
2010-10-15 07:48:32 51°24.66 2°43.746 289 2 319 24.8
2010-10-15 07:49:32 51°24.677 2°43.725 300.9 1 18 23.4
2010-10-15 07:50:32 51°24.686 2°43.729 305.7 0.6 5 24.5
2010-10-15 07:51:32 51°24.695 2°43.736 311 0.3 13 24.5
2010-10-15 07:52:32 51°24.705 2°43.735 302 1.4 316 24
2010-10-15 07:53:32 51°24.713 2°43.682 241 2.4 246 24.7
2010-10-15 07:54:32 51°24.678 2°43.673 167.4 1.9 152 21.8
2010-10-15 07:55:32 51°24.669 2°43.697 151 1.2 105 22.3
2010-10-15 07:56:32 51°24.669 2°43.718 133.4 0.7 86 24
2010-10-15 07:57:32 51°24.673 2°43.737 125.9 0.7 72 24.5
2010-10-15 07:58:32 51°24.677 2°43.755 126.3 0.8 69 23.3
2010-10-15 07:59:32 51°24.682 2°43.767 125.1 0.8 344 22.2
2010-10-15 08:00:34 51°24.706 2°43.745 140.4 1.8 336 24
2010-10-15 08:01:34 51°24.706 2°43.746 184.9 1 177 23.7
2010-10-15 08:02:32 51°24.69 2°43.74 213.2 1.1 216 23.5
2010-10-15 08:03:32 51°24.673 2°43.722 216.7 1.4 211 21.7
2010-10-15 08:04:32 51°24.669 2°43.709 230.1 0.3 287 22.2
2010-10-15 08:05:32 51°24.669 2°43.702 234 0.2 291 22.8
2010-10-15 08:06:32 51°24.671 2°43.694 234.3 0.5 306 22.5
2010-10-15 08:07:32 51°24.672 2°43.688 231.1 0.1 89 22.7
2010-10-15 08:08:32 51°24.674 2°43.682 227.1 0.3 303 21.8
2010-10-15 08:09:32 51°24.674 2°43.677 224.4 0.2 296 21.1
2010-10-15 08:10:32 51°24.683 2°43.688 234.3 1.6 51 23.5
2010-10-15 08:11:35 51°24.7 2°43.723 238.9 1.1 56 -999
2010-10-15 08:12:35 51°24.68 2°43.718 189.5 1.9 185 24.1
2010-10-15 08:13:33 51°24.66 2°43.719 183.8 0.3 147 24.8
2010-10-15 08:14:32 51°24.659 2°43.726 171.4 0.2 81 25.3
2010-10-15 08:15:32 51°24.661 2°43.735 159.4 0.5 88 24.9
2010-10-15 08:16:32 51°24.662 2°43.745 154.3 0.4 87 24.6
2010-10-15 08:17:32 51°24.663 2°43.757 146.3 0.5 70 23.5
2010-10-15 08:18:32 51°24.665 2°43.77 138.3 0.4 94 23.3
2010-10-15 08:19:32 51°24.661 2°43.788 149.6 1.5 134 21.3
2010-10-15 08:20:32 51°24.647 2°43.8 201.9 1.1 36 21.6
2010-10-15 08:21:36 51°24.654 2°43.801 234.5 1.6 242 -999
2010-10-15 08:22:34 51°24.657 2°43.76 271.5 1.4 288 24.5
2010-10-15 08:23:32 51°24.668 2°43.733 283.4 1.1 308 24.3
2010-10-15 08:24:32 51°24.679 2°43.725 295.5 0.4 24 23.8
2010-10-15 08:25:32 51°24.686 2°43.727 294 0.6 9 23.7
2010-10-15 08:26:32 51°24.693 2°43.729 296.5 0.5 15 23.8
2010-10-15 08:27:32 51°24.699 2°43.731 300.5 0.2 359 23.6
2010-10-15 08:28:32 51°24.705 2°43.735 300.9 0.4 44 23.5
2010-10-15 08:29:32 51°24.707 2°43.748 296.6 0.8 99 22.4
2010-10-15 08:30:35 51°24.706 2°43.772 269.9 1.7 273 -999
2010-10-15 08:31:34 51°24.68 2°43.718 210.4 2.1 220 23.9
2010-10-15 08:32:32 51°24.665 2°43.701 213.3 0.5 245 22.2
2010-10-15 08:33:32 51°24.662 2°43.695 224.2 0.3 254 21.2
2010-10-15 08:34:32 51°24.662 2°43.688 232.7 0.3 303 20.6
2010-10-15 08:35:32 51°24.664 2°43.68 237.4 0.2 257 20.1
2010-10-15 08:36:32 51°24.668 2°43.676 241.4 0.4 9 19.6
2010-10-15 08:37:32 51°24.676 2°43.691 240.3 1.2 50 23.2
2010-10-15 08:38:32 51°24.691 2°43.719 234.5 0.9 42 24.5
2010-10-15 08:39:32 51°24.678 2°43.707 202.3 2.4 206 24.1
2010-10-15 08:40:32 51°24.658 2°43.683 206.1 0.6 226 20.8
2010-10-15 08:41:32 51°24.652 2°43.682 183 0.4 170 22.4
2010-10-15 08:42:32 51°24.653 2°43.686 170.9 0.2 72 21.3
2010-10-15 08:43:32 51°24.656 2°43.691 160.5 0.2 22 21.3
2010-10-15 08:44:32 51°24.658 2°43.695 154.9 0.5 108 22.4
2010-10-15 08:45:32 51°24.658 2°43.703 152.2 0.3 27 24.2
2010-10-15 08:46:32 51°24.662 2°43.706 148.3 0.5 35 24.2
2010-10-15 08:47:32 51°24.667 2°43.709 146 0.2 326 23.4
2010-10-15 08:48:32 51°24.671 2°43.713 143 0.2 50 21.1
2010-10-15 08:49:32 51°24.674 2°43.719 137.4 0.2 40 21.3
2010-10-15 08:50:32 51°24.679 2°43.725 132.8 0.5 40 21.2
2010-10-15 08:51:32 51°24.682 2°43.73 130.9 0.4 49 22.5
2010-10-15 08:52:32 51°24.686 2°43.737 129.2 0.4 46 22.8
2010-10-15 08:53:32 51°24.689 2°43.743 129.7 0.1 39 23
2010-10-15 08:54:32 51°24.693 2°43.749 130.5 0.3 47 22.6
2010-10-15 08:55:32 51°24.696 2°43.755 130.9 0.4 60 22.6
2010-10-15 08:56:32 51°24.699 2°43.761 129 -999 15 22
2010-10-15 08:57:32 51°24.702 2°43.767 126.5 0.1 74 20.8
2010-10-15 08:58:32 51°24.705 2°43.774 121.4 0.4 52 21.5
2010-10-15 08:59:32 51°24.708 2°43.782 120.2 0.4 57 22.9
2010-10-15 09:00:32 51°24.708 2°43.795 116.7 0.8 98 24.4
2010-10-15 09:01:32 51°24.709 2°43.859 85.4 4.2 78 24.4
2010-10-15 09:02:32 51°24.771 2°43.996 51.3 8.5 49 22.2
2010-10-15 09:03:32 51°24.864 2°44.195 55.8 9.8 54 21.9
2010-10-15 09:04:32 51°24.957 2°44.407 56 9.9 56 25.7
2010-10-15 09:05:32 51°25.055 2°44.623 55.9 10.8 54 24.7
2010-10-15 09:06:32 51°25.17 2°44.877 56 12 55 24.4
2010-10-15 09:07:32 51°25.305 2°45.131 45.7 13.2 46 24.4
2010-10-15 09:08:32 51°25.468 2°45.376 44.4 13.6 44 23
2010-10-15 09:09:32 51°25.632 2°45.622 44.9 13.4 45 25.3
2010-10-15 09:10:32 51°25.793 2°45.872 45.4 13.5 48 26
2010-10-15 09:11:32 51°25.954 2°46.123 45 13.5 44 25.2
2010-10-15 09:12:32 51°26.115 2°46.378 45 13.7 48 25.9
2010-10-15 09:13:32 51°26.277 2°46.63 44.8 13.6 45 25.8
2010-10-15 09:14:32 51°26.438 2°46.886 45.2 13.5 45 26.1
2010-10-15 09:15:32 51°26.619 2°47.104 34.7 13.8 34 26.3
2010-10-15 09:16:32 51°26.806 2°47.307 35.1 13.6 33 27
2010-10-15 09:17:32 51°26.993 2°47.513 35.4 13.5 35 27
2010-10-15 09:18:32 51°27.18 2°47.719 35 13.5 34 24.7
2010-10-15 09:19:32 51°27.369 2°47.927 35.1 13.9 35 26.4
2010-10-15 09:20:32 51°27.557 2°48.134 34.3 13.7 35 26.9
2010-10-15 09:21:32 51°27.746 2°48.344 36.1 13.8 34 27
2010-10-15 09:22:32 51°27.933 2°48.56 36.2 13.8 37 29
2010-10-15 09:23:32 51°28.115 2°48.785 40.3 13.9 38 24.6
2010-10-15 09:24:32 51°28.291 2°49.018 40.9 13.7 39 27
2010-10-15 09:25:32 51°28.469 2°49.251 40.3 13.8 39 29.4
2010-10-15 09:26:32 51°28.647 2°49.479 40 13.9 39 29.7
2010-10-15 09:27:32 51°28.822 2°49.704 41 13.3 39 29.2
2010-10-15 09:28:32 51°28.997 2°49.931 40.3 13.5 40 27.1
2010-10-15 09:29:32 51°29.172 2°50.16 41.4 13.6 40 30
2010-10-15 09:30:32 51°29.338 2°50.4 43.5 13.4 44 29.1
2010-10-15 09:31:32 51°29.504 2°50.643 43.4 13.3 42 30.9
2010-10-15 09:32:32 51°29.67 2°50.885 43.8 13.5 42 29.2
2010-10-15 09:33:32 51°29.835 2°51.129 44 13.7 42 30.7
2010-10-15 09:34:32 51°30 2°51.368 42.9 13.7 42 27.5
2010-10-15 09:35:32 51°30.167 2°51.609 43.3 13.7 41 29.6
2010-10-15 09:36:32 51°30.335 2°51.849 42.8 13.6 41 26.4
2010-10-15 09:37:32 51°30.504 2°52.089 43.1 13.5 42 19.6
2010-10-15 09:38:32 51°30.673 2°52.329 43.6 13.6 42 16.7
2010-10-15 09:39:32 51°30.843 2°52.567 43.1 13.7 41 19.4
2010-10-15 09:40:32 51°31.013 2°52.805 42.6 13.6 41 18.2
2010-10-15 09:41:32 51°31.18 2°53.045 43.7 13.5 41 20.1
2010-10-15 09:42:32 51°31.348 2°53.284 43.4 13.4 43 16.8
2010-10-15 09:43:32 51°31.518 2°53.527 43 13.8 43 20.5
2010-10-15 09:44:32 51°31.689 2°53.769 43.1 13.7 41 21.6
2010-10-15 09:45:32 51°31.858 2°54.013 42.7 13.7 44 20.4
2010-10-15 09:46:32 51°32.028 2°54.257 43.5 13.7 42 22.1
2010-10-15 09:47:32 51°32.196 2°54.501 43.1 13.6 41 21.8
2010-10-15 09:48:32 51°32.366 2°54.741 43.2 13.3 42 23.6
2010-10-15 09:49:32 51°32.528 2°54.968 43 10.4 41 22
2010-10-15 09:50:32 51°32.617 2°55.101 46.8 5.2 43 23.1
2010-10-15 09:51:32 51°32.65 2°55.178 80.1 2.3 67 21.6
2010-10-15 09:52:32 51°32.656 2°55.214 112.1 0.7 86 23
2010-10-15 09:53:32 51°32.658 2°55.227 136 0.4 93 24
2010-10-15 09:54:32 51°32.657 2°55.236 145.7 0.3 108 23.9
2010-10-15 09:55:32 51°32.656 2°55.243 148.6 0.4 100 23.8
2010-10-15 09:56:32 51°32.654 2°55.25 146.7 0.3 97 23.8
2010-10-15 09:57:32 51°32.653 2°55.256 145 0.2 75 23.8
2010-10-15 09:58:32 51°32.656 2°55.259 143 0.3 20 24
2010-10-15 09:59:32 51°32.66 2°55.257 143.4 0.3 330 23.5
2010-10-15 10:00:32 51°32.667 2°55.253 143.6 0.4 318 23.9
2010-10-15 10:01:32 51°32.674 2°55.247 147.4 0.5 335 24
2010-10-15 10:02:32 51°32.68 2°55.24 153.7 0.3 323 23.9
2010-10-15 10:03:32 51°32.685 2°55.236 156.1 0.3 326 24.5
2010-10-15 10:04:32 51°32.688 2°55.234 156.7 0.4 290 24.2
2010-10-15 10:05:32 51°32.69 2°55.232 154.7 0.1 327 24.1
2010-10-15 10:06:32 51°32.692 2°55.232 150.3 0.2 338 24.2
2010-10-15 10:07:32 51°32.694 2°55.232 143.2 0.1 288 24.6
2010-10-15 10:08:32 51°32.696 2°55.235 134.4 0.2 45 23.8
2010-10-15 10:09:32 51°32.697 2°55.237 128.7 0.2 29 24.4
2010-10-15 10:10:32 51°32.698 2°55.239 125 0.1 227 24.4
2010-10-15 10:11:32 51°32.7 2°55.242 123.4 0.1 165 24.3
2010-10-15 10:12:32 51°32.701 2°55.246 119 0.2 61 23.8
2010-10-15 10:13:32 51°32.703 2°55.249 115.7 0.2 50 23.9
2010-10-15 10:14:32 51°32.705 2°55.253 111.4 0.2 55 24.1
2010-10-15 10:15:32 51°32.707 2°55.256 106.8 0.2 34 23.5
2010-10-15 10:16:32 51°32.71 2°55.259 102.2 0.1 359 24
2010-10-15 10:17:32 51°32.713 2°55.262 100 0.3 40 23.2
2010-10-15 10:18:32 51°32.716 2°55.265 97 0.2 32 22.8
2010-10-15 10:19:32 51°32.718 2°55.266 93.7 0.2 26 22.6
2010-10-15 10:20:32 51°32.719 2°55.267 91.3 0.3 355 21.8
2010-10-15 10:21:32 51°32.72 2°55.268 89.3 0.1 140 21.1
2010-10-15 10:22:32 51°32.722 2°55.268 88 0.3 339 20.8
2010-10-15 10:23:32 51°32.724 2°55.268 85.7 0.1 283 20.9
2010-10-15 10:24:32 51°32.725 2°55.266 84 0.2 226 20.9
2010-10-15 10:25:36 51°32.727 2°55.264 85.2 0.1 318 -999
2010-10-15 10:26:34 51°32.728 2°55.263 87.4 0.2 212 20.9
2010-10-15 10:27:33 51°32.729 2°55.261 87.1 0.1 350 20.7
2010-10-15 10:28:32 51°32.731 2°55.26 86.5 0.1 312 21
2010-10-15 10:29:32 51°32.732 2°55.258 84.9 0.3 331 20.7
2010-10-15 10:30:32 51°32.732 2°55.257 84.3 0.1 40 20.9
2010-10-15 10:31:32 51°32.733 2°55.255 84.9 -999 199 20.9
2010-10-15 10:32:32 51°32.733 2°55.253 86.6 0.2 350 21.1
2010-10-15 10:33:32 51°32.732 2°55.251 86.9 0.1 194 21.8
2010-10-15 10:34:32 51°32.733 2°55.25 88.6 -999 240 21.5
2010-10-15 10:35:32 51°32.733 2°55.247 88.9 0.2 353 22
2010-10-15 10:36:32 51°32.733 2°55.245 88.4 -999 115 22.8
2010-10-15 10:37:32 51°32.733 2°55.242 88.6 0.1 262 22.9
2010-10-15 10:38:32 51°32.732 2°55.244 96.6 0.5 68 22.8
2010-10-15 10:39:32 51°32.728 2°55.261 116.5 1 117 21.4
2010-10-15 10:40:32 51°32.717 2°55.28 143.7 1.1 143 20.9
2010-10-15 10:41:32 51°32.697 2°55.285 178 1.7 191 22.9
2010-10-15 10:42:32 51°32.665 2°55.232 240.2 3.8 244 23.8
2010-10-15 10:43:32 51°32.603 2°55.074 228.5 9.4 228 23
2010-10-15 10:44:32 51°32.472 2°54.857 221.5 13.2 219 22.4
2010-10-15 10:45:32 51°32.321 2°54.61 220.1 12.8 221 22.4
2010-10-15 10:46:32 51°32.165 2°54.372 222.9 12.8 227 21.6
2010-10-15 10:47:32 51°32.017 2°54.113 224.7 13.6 223 18.3
2010-10-15 10:48:32 51°31.871 2°53.856 225 13.4 228 21.1
2010-10-15 10:49:32 51°31.723 2°53.601 221.4 13.5 227 21.3
2010-10-15 10:50:32 51°31.579 2°53.337 225.3 13.2 229 21.3
2010-10-15 10:51:32 51°31.442 2°53.063 229.7 13.3 227 20.3
2010-10-15 10:52:32 51°31.342 2°52.816 250.5 7.5 259 21.1
2010-10-15 10:53:32 51°31.341 2°52.673 256.8 4 259 19.4
2010-10-15 10:54:32 51°31.328 2°52.601 245 1.8 256 21.3
2010-10-15 10:55:32 51°31.326 2°52.593 259.2 0.3 100 21.7
2010-10-15 10:56:33 51°31.325 2°52.605 255.4 0.4 117 21.4
2010-10-15 10:57:32 51°31.325 2°52.609 250.5 0.3 146 21.5
2010-10-15 10:58:32 51°31.325 2°52.61 248.3 0.2 306 20.8
2010-10-15 10:59:32 51°31.324 2°52.608 245 0.2 169 21.6
2010-10-15 11:00:32 51°31.322 2°52.603 246.5 0.2 231 21.3
2010-10-15 11:01:32 51°31.319 2°52.597 250.2 0.2 240 21
2010-10-15 11:02:32 51°31.317 2°52.591 258.8 0.2 232 21.1
2010-10-15 11:03:32 51°31.316 2°52.586 264.3 0.2 214 21.4
2010-10-15 11:04:32 51°31.315 2°52.583 267.5 0.1 359 21
2010-10-15 11:05:32 51°31.314 2°52.582 275.6 0.1 130 21.2
2010-10-15 11:06:32 51°31.312 2°52.584 284.4 0.3 163 21.2
2010-10-15 11:07:32 51°31.31 2°52.587 290.8 0.4 158 21.2
2010-10-15 11:08:32 51°31.307 2°52.59 295.6 0.2 117 21.3
2010-10-15 11:09:32 51°31.304 2°52.59 306.7 0.2 187 21
2010-10-15 11:10:32 51°31.302 2°52.589 319.8 0.2 228 20.9
2010-10-15 11:11:32 51°31.3 2°52.587 328.3 0.2 219 21.4
2010-10-15 11:12:32 51°31.299 2°52.586 340.7 0.1 203 21
2010-10-15 11:13:32 51°31.298 2°52.585 349.6 0.1 226 21.5
2010-10-15 11:14:32 51°31.298 2°52.582 353.3 0.2 259 20.5
2010-10-15 11:15:32 51°31.298 2°52.578 351.9 0.3 261 21.3
2010-10-15 11:16:32 51°31.299 2°52.575 352 0.1 296 21.1
2010-10-15 11:17:32 51°31.301 2°52.572 358.5 0.2 285 20.9
2010-10-15 11:18:32 51°31.301 2°52.571 6.8 0.1 194 21.1
2010-10-15 11:19:31 51°31.299 2°52.572 16.9 0.2 235 21.1
2010-10-15 11:20:32 51°31.297 2°52.568 14.3 0.1 259 21.2
2010-10-15 11:21:32 51°31.296 2°52.563 8.1 0.2 251 21
2010-10-15 11:22:32 51°31.297 2°52.558 7.2 0.3 299 21.3
2010-10-15 11:23:32 51°31.298 2°52.556 10.7 0.2 287 21.3
2010-10-15 11:24:32 51°31.299 2°52.552 12.5 0.1 46 21.6
2010-10-15 11:25:32 51°31.3 2°52.551 21.1 -999 312 22.2
2010-10-15 11:26:32 51°31.3 2°52.551 31.6 0.2 105 21.8
2010-10-15 11:27:32 51°31.3 2°52.554 39.4 0.2 15 20.9
2010-10-15 11:28:32 51°31.299 2°52.557 40.3 0.1 78 21.6
2010-10-15 11:29:32 51°31.299 2°52.558 35.6 0.1 261 21.1
2010-10-15 11:30:32 51°31.298 2°52.558 29.4 0.1 248 21
2010-10-15 11:31:32 51°31.296 2°52.561 31.4 0.3 152 21.3
2010-10-15 11:32:32 51°31.294 2°52.566 33.6 0.2 106 21.2
2010-10-15 11:33:32 51°31.293 2°52.571 31.3 0.2 119 21.4
2010-10-15 11:34:32 51°31.292 2°52.574 23.4 0.2 128 21.1
2010-10-15 11:35:32 51°31.29 2°52.576 17.5 0.1 155 21.3
2010-10-15 11:36:32 51°31.29 2°52.576 13.3 0.1 276 21.4
2010-10-15 11:37:32 51°31.291 2°52.575 8.7 -999 331 21.5
2010-10-15 11:38:32 51°31.29 2°52.574 8.7 0.1 58 21.5
2010-10-15 11:39:32 51°31.289 2°52.571 7 0.2 288 21.4
2010-10-15 11:40:32 51°31.291 2°52.566 3.1 0.3 294 20.8
2010-10-15 11:41:32 51°31.292 2°52.563 4.6 0.1 183 21
2010-10-15 11:42:32 51°31.291 2°52.563 15.7 0.1 215 21.7
2010-10-15 11:43:32 51°31.29 2°52.568 27.2 0.4 71 21.2
2010-10-15 11:44:32 51°31.291 2°52.573 26.3 0.2 62 21.2
2010-10-15 11:45:32 51°31.291 2°52.576 20.9 -999 133 21.2
2010-10-15 11:46:32 51°31.29 2°52.575 15.4 0.2 278 21.4
2010-10-15 11:47:32 51°31.29 2°52.574 8.3 0.1 290 21.2
2010-10-15 11:48:32 51°31.29 2°52.571 4.4 0.1 318 21
2010-10-15 11:49:32 51°31.289 2°52.571 4.8 0.1 145 21.1
2010-10-15 11:50:32 51°31.289 2°52.569 6.5 0.1 289 20.8
2010-10-15 11:51:32 51°31.29 2°52.568 7 0.1 200 21.2
2010-10-15 11:52:32 51°31.29 2°52.566 8.8 0.1 280 20.9
2010-10-15 11:53:32 51°31.291 2°52.566 8.9 0.1 34 21.4
2010-10-15 11:54:32 51°31.291 2°52.566 12 0.1 158 21.4
2010-10-15 11:55:32 51°31.29 2°52.568 15.4 0.1 145 21.2
2010-10-15 11:56:32 51°31.29 2°52.57 12.4 0.2 33 21.1
2010-10-15 11:57:32 51°31.29 2°52.571 11.7 0.1 196 21.3
2010-10-15 11:58:32 51°31.289 2°52.572 11.4 0.2 105 21
2010-10-15 11:59:32 51°31.29 2°52.574 10.2 0.1 51 21.2
2010-10-15 12:00:32 51°31.29 2°52.574 9.9 0.1 217 21.7
2010-10-15 12:01:32 51°31.29 2°52.574 9.2 0.3 43 20.8
2010-10-15 12:02:32 51°31.297 2°52.572 2.6 0.6 357 21.4
2010-10-15 12:03:32 51°31.306 2°52.569 2.2 0.4 13 21.3
2010-10-15 12:04:32 51°31.311 2°52.569 8.1 0.2 341 21.7
2010-10-15 12:05:32 51°31.31 2°52.569 13.2 0.4 167 21.5
2010-10-15 12:06:32 51°31.305 2°52.571 27.8 0.5 111 21.5
2010-10-15 12:07:32 51°31.307 2°52.596 65.5 1.7 88 20.6
2010-10-15 12:08:32 51°31.291 2°52.662 113.7 3.5 125 21.1
2010-10-15 12:09:32 51°31.212 2°52.717 162.3 7.4 168 20.2
2010-10-15 12:10:32 51°31.054 2°52.754 171.2 11 177 18.7
2010-10-15 12:11:32 51°30.841 2°52.78 172.9 13.5 177 19.2
2010-10-15 12:12:32 51°30.608 2°52.797 172.6 14 181 21.1
2010-10-15 12:13:32 51°30.38 2°52.822 170.9 13.5 176 27.2
2010-10-15 12:14:32 51°30.156 2°52.838 172.9 13.5 175 29.3
2010-10-15 12:15:32 51°29.925 2°52.856 173.2 14.1 177 28.9
2010-10-15 12:16:32 51°29.699 2°52.875 173.6 13.7 178 30.9
2010-10-15 12:17:32 51°29.474 2°52.895 171.4 13.4 177 28.7
2010-10-15 12:18:32 51°29.246 2°52.913 172.6 13.5 179 27.2
2010-10-15 12:19:32 51°29.084 2°52.926 171.4 7.6 177 26.5
2010-10-15 12:20:32 51°28.977 2°52.929 173.1 5.9 182 25.7
2010-10-15 12:21:32 51°28.885 2°52.929 172.3 5.3 178 24.9
2010-10-15 12:22:32 51°28.798 2°52.929 172.5 5.1 180 25.4
2010-10-15 12:23:32 51°28.659 2°52.938 171.4 11.6 179 25
2010-10-15 12:24:31 51°28.445 2°52.964 170.8 13.3 176 23.3
2010-10-15 12:25:32 51°28.214 2°52.983 173.1 13.8 177 22.4
2010-10-15 12:26:32 51°27.986 2°53.003 172 13.1 178 20.7
2010-10-15 12:27:32 51°27.761 2°53.027 172.5 12.9 174 19.5
2010-10-15 12:28:32 51°27.535 2°53.048 171.5 13.3 172 18.2
2010-10-15 12:29:32 51°27.305 2°53.066 171.5 13.4 178 22.7
2010-10-15 12:30:32 51°27.074 2°53.076 173.6 13.7 177 26.8
2010-10-15 12:31:32 51°26.844 2°53.088 173.3 14.1 181 28.3
2010-10-15 12:32:32 51°26.618 2°53.111 173.5 13.8 179 29.5
2010-10-15 12:33:32 51°26.391 2°53.127 173.7 13.6 174 28.7
2010-10-15 12:34:32 51°26.167 2°53.159 172.2 13.8 176 29.4
2010-10-15 12:35:32 51°25.94 2°53.178 170.9 14.1 173 27.8
2010-10-15 12:36:32 51°25.717 2°53.22 169.2 13.7 173 24.8
2010-10-15 12:37:32 51°25.493 2°53.273 163.2 13.3 168 23.3
2010-10-15 12:38:32 51°25.267 2°53.321 168.4 13.6 171 21.1
2010-10-15 12:39:32 51°25.04 2°53.364 167 13.5 175 19.7
2010-10-15 12:40:32 51°24.81 2°53.406 167.5 13.3 174 18.5
2010-10-15 12:41:32 51°24.583 2°53.457 165.2 13.6 172 18.8
2010-10-15 12:42:32 51°24.355 2°53.499 170.7 14.3 173 16.9
2010-10-15 12:43:32 51°24.121 2°53.492 176.8 14.1 183 17.8
2010-10-15 12:44:32 51°23.89 2°53.427 185.3 14.2 191 20.5
2010-10-15 12:45:32 51°23.662 2°53.341 189.1 14.3 195 20.4
2010-10-15 12:46:32 51°23.436 2°53.233 191.3 14.8 198 19.8
2010-10-15 12:47:32 51°23.209 2°53.128 192.3 14.5 199 20.1
2010-10-15 12:48:32 51°22.984 2°53.026 192 13.6 193 21.5
2010-10-15 12:49:32 51°22.761 2°52.931 189.9 13.9 195 22.1
2010-10-15 12:50:32 51°22.539 2°52.837 189.9 13.8 197 21.9
2010-10-15 12:51:32 51°22.334 2°52.675 208.9 13.8 217 23.1
2010-10-15 12:52:32 51°22.145 2°52.464 217 14 220 23.1
2010-10-15 12:53:32 51°21.967 2°52.23 215.5 14.1 219 23.7
2010-10-15 12:54:32 51°21.791 2°51.989 217.1 13.9 218 23.2
2010-10-15 12:55:32 51°21.613 2°51.751 220.2 13.5 217 22.6
2010-10-15 12:56:32 51°21.428 2°51.531 207.3 13.6 213 22.3
2010-10-15 12:57:32 51°21.217 2°51.389 190.7 13.9 197 20.9
2010-10-15 12:58:31 51°20.997 2°51.299 189.2 13.8 192 18.9
2010-10-15 12:59:32 51°20.769 2°51.212 187.3 14.2 192 17.1
2010-10-15 13:00:32 51°20.539 2°51.148 184.4 13.6 190 15.9
2010-10-15 13:01:32 51°20.314 2°51.13 171 13.2 173 14.1
2010-10-15 13:02:32 51°20.089 2°51.167 168.8 13.5 173 12.6
2010-10-15 13:03:32 51°19.863 2°51.205 167.2 14 176 12.2
2010-10-15 13:04:32 51°19.633 2°51.243 169.2 13.8 176 14.3
2010-10-15 13:05:32 51°19.403 2°51.274 168.8 13.5 179 14.7
2010-10-15 13:06:32 51°19.175 2°51.312 166.2 14.5 172 14.8
2010-10-15 13:07:32 51°18.947 2°51.373 163.4 13.9 169 14.3
2010-10-15 13:08:32 51°18.722 2°51.44 163.8 13.8 168 13.5
2010-10-15 13:09:32 51°18.501 2°51.518 161.9 13.4 169 12.5
2010-10-15 13:10:32 51°18.278 2°51.602 159.7 14.5 165 11.5
2010-10-15 13:11:32 51°18.055 2°51.691 157.4 14.5 166 10.6
2010-10-15 13:12:32 51°17.838 2°51.784 158.7 13.6 165 9.8
2010-10-15 13:13:32 51°17.621 2°51.896 154.9 13.6 160 10
2010-10-15 13:14:32 51°17.411 2°52.035 150.6 14.1 154 10.7
2010-10-15 13:15:32 51°17.201 2°52.184 148.3 14.1 156 10.9
2010-10-15 13:16:32 51°16.998 2°52.341 147 13.6 155 9.5
2010-10-15 13:17:32 51°16.798 2°52.505 147.5 13.3 154 9.3
2010-10-15 13:18:32 51°16.596 2°52.674 145.1 13.4 152 11
2010-10-15 13:19:32 51°16.406 2°52.859 141.6 13.4 148 11.5
2010-10-15 13:20:32 51°16.216 2°53.04 143.5 13.6 150 11.5
2010-10-15 13:21:32 51°16.027 2°53.216 142.7 13.1 148 11.3
2010-10-15 13:22:32 51°15.845 2°53.404 140.8 12.9 148 10.9
2010-10-15 13:23:32 51°15.661 2°53.592 141.3 13 149 10.6
2010-10-15 13:24:32 51°15.481 2°53.788 138.1 12.7 146 10.2
2010-10-15 13:25:32 51°15.306 2°53.995 137.3 13 144 9.7
2010-10-15 13:26:32 51°15.134 2°54.203 137.1 13.2 139 8.9
2010-10-15 13:27:31 51°14.98 2°54.425 135.8 12.6 141 9.4
2010-10-15 13:28:32 51°14.823 2°54.632 135.1 12 141 11.2
2010-10-15 13:29:32 51°14.674 2°54.822 137.1 10.4 142 11.2
2010-10-15 13:30:32 51°14.546 2°54.972 138.6 9.2 143 11.3
2010-10-15 13:31:32 51°14.424 2°55.123 143.7 10 147 10
2010-10-15 13:32:32 51°14.284 2°55.269 146.5 9.7 150 9.9
2010-10-15 13:33:32 51°14.163 2°55.371 153 7.5 155 10.1
2010-10-15 13:34:32 51°14.049 2°55.454 153.2 7.9 157 9.1
2010-10-15 13:35:32 51°13.916 2°55.552 153.2 9 155 10.6
2010-10-15 13:36:31 51°13.806 2°55.649 142.1 6.4 143 11.6
2010-10-15 13:37:32 51°13.744 2°55.75 129 4.7 130 10.4
2010-10-15 13:38:32 51°13.699 2°55.841 122.5 4.2 123 9.7
2010-10-15 13:39:32 51°13.669 2°55.929 110.8 3.2 113 7.4